Monday, July 23, 2018, 11:06 AM EDT
Back to Local

KMLT, Millinocket Municipal Airport

Location: Millinocket, ME, United States Lat: 45.65
Local Time: 11:06 AM EDT (15:06 GMT) Lon: -68.7
Time Zone: US/Eastern Elev: 406 ft

Show me the last for .
Show Decoded

2018-07-23 10:07 METAR KMLT 231407Z AUTO VRB05KT 6SM BR BKN006 OVC011 23/21 A3030 RMK AO2
                 T02280211 =
2018-07-23 09:53 METAR KMLT 231353Z AUTO VRB04KT 4SM BR OVC005 23/21 A3030 RMK AO2 CIG 004V008
                 SLP264 T02280211 =
2018-07-23 09:45 METAR KMLT 231345Z AUTO 19004KT 3SM BR OVC005 22/21 A3030 RMK AO2 CIG 004V009
                 T02220211 =
2018-07-23 09:30 METAR KMLT 231330Z AUTO VRB03KT 4SM BR OVC004 22/21 A3030 RMK AO2 CIG 003V010
                 T02220211 =
2018-07-23 09:08 METAR KMLT 231308Z AUTO VRB05KT 2 1/2SM BR OVC004 22/21 A3029 RMK AO2 T02220211
                 =
2018-07-23 08:53 METAR KMLT 231253Z AUTO VRB04KT 5SM BR OVC004 22/21 A3029 RMK AO2 RAB31E42
                 SLP261 P0001 T02220211 =
2018-07-23 08:40 METAR KMLT 231240Z AUTO VRB03KT 3SM -RA BR OVC004 22/21 A3029 RMK AO2 RAB31 CIG
                 003V007 P0001 T02170211 =
2018-07-23 08:25 METAR KMLT 231225Z AUTO VRB06KT 1 3/4SM BR OVC003 22/21 A3029 RMK AO2 T02170206
                 =
2018-07-23 07:53 METAR KMLT 231153Z AUTO VRB04KT 1 1/4SM BR OVC003 22/21 A3029 RMK AO2 RAB1057E18
                 SLP259 P0000 60021 70025 T02170206 10217 20206 51005 =
2018-07-23 07:49 METAR KMLT 231149Z AUTO VRB06KT 1 1/4SM BR OVC003 22/21 A3029 RMK AO2 RAB1057E18
                 P0000 =
2018-07-23 07:13 METAR KMLT 231113Z AUTO VRB03KT 1 1/2SM -RA BR OVC003 21/21 A3028 RMK AO2
                 RAB1057 P0000 T02110206 $ =
2018-07-23 06:53 METAR KMLT 231053Z AUTO VRB05KT 1 1/4SM BR OVC003 21/21 A3028 RMK AO2 RAE06
                 SLP256 P0000 T02110206 $ =
2018-07-23 06:32 METAR KMLT 231032Z AUTO VRB05KT 1 1/2SM BR OVC004 21/21 A3028 RMK AO2 RAE06
                 P0000 T02110206 $ =
2018-07-23 06:22 METAR KMLT 231022Z AUTO VRB03KT 2SM BR OVC004 21/21 A3027 RMK AO2 RAE06 P0000
                 T02110206 $ =
2018-07-23 05:53 METAR KMLT 230953Z AUTO 17003KT 3SM -RA BR OVC004 21/21 A3027 RMK AO2 RAB18
                 SLP253 P0001 T02110206 $ =
2018-07-23 04:53 METAR KMLT 230853Z AUTO 17003KT 4SM BR OVC004 21/20 A3026 RMK AO2 RAE23 SLP249
                 P0001 60020 T02110200 53004 $ =
2018-07-23 04:43 METAR KMLT 230843Z AUTO VRB03KT 4SM BR OVC004 21/20 A3026 RMK AO2 RAE23 P0001
                 T02110200 $ =
2018-07-23 04:29 METAR KMLT 230829Z AUTO 15006KT 5SM BR OVC005 21/20 A3025 RMK AO2 RAE23 P0001
                 T02110200 $ =
2018-07-23 04:04 METAR KMLT 230804Z AUTO 00000KT 4SM -RA BR OVC007 21/20 A3025 RMK AO2 P0001
                 T02110200 $ =
2018-07-23 03:53 METAR KMLT 230753Z AUTO VRB04KT 2 1/2SM RA BR OVC007 21/20 A3025 RMK AO2 SLP246
                 P0007 T02110200 $ =
2018-07-23 03:51 METAR KMLT 230751Z AUTO 00000KT 3SM -RA BR OVC007 21/20 A3025 RMK AO2 P0006 $ =
2018-07-23 03:48 METAR KMLT 230748Z AUTO VRB03KT 2 1/2SM -RA BR BKN005 OVC011 21/20 A3025 RMK AO2
                 P0005 $ =
2018-07-23 03:14 METAR KMLT 230714Z AUTO VRB05KT 5SM -RA BR BKN005 BKN011 OVC041 21/20 A3025 RMK
                 AO2 P0001 T02110200 $ =
2018-07-23 03:06 METAR KMLT 230706Z AUTO VRB04KT 8SM -RA BKN008 BKN023 OVC035 21/20 A3025 RMK AO2
                 P0001 T02110200 $ =
2018-07-23 02:53 METAR KMLT 230653Z AUTO 15003KT 3SM RA BR SCT006 BKN025 OVC037 21/20 A3025 RMK
                 AO2 RAB26 SLP245 P0012 T02060200 $ =
2018-07-23 02:50 METAR KMLT 230650Z AUTO 16003KT 3SM RA BR SCT006 SCT020 OVC028 21/20 A3025 RMK
                 AO2 RAB26 P0011 $ =
2018-07-23 02:45 METAR KMLT 230645Z AUTO 00000KT 1 1/2SM RA BR SCT006 BKN022 OVC032 21/20 A3025
                 RMK AO2 RAB26 P0010 T02060200 $ =
2018-07-23 02:37 METAR KMLT 230637Z AUTO VRB03KT 1 3/4SM +RA BR BKN006 BKN020 OVC031 21/20 A3025
                 RMK AO2 VIS 1V3 RAB26 P0006 T02110200 $ =
2018-07-23 01:53 METAR KMLT 230553Z AUTO VRB03KT 10SM BKN007 OVC040 21/20 A3024 RMK AO2 RAB33E48
                 SLP244 P0000 60004 T02110200 10239 20211 58005 $ =
2018-07-23 00:53 METAR KMLT 230453Z AUTO VRB04KT 10SM BKN007 BKN012 OVC034 22/20 A3025 RMK AO2
                 RAB29E42 CIG 004V009 SLP246 P0000 T02170200 402720122 $ =
2018-07-22 23:53 METAR KMLT 230353Z AUTO VRB03KT 9SM OVC008 22/21 A3026 RMK AO2 RAE45 CIG 006V010
                 SLP250 P0001 T02170206 $ =
2018-07-22 22:53 METAR KMLT 230253Z AUTO VRB04KT 8SM -RA BKN008 OVC013 22/21 A3026 RMK AO2
                 RAE0154B10E20B39 CIG 005V010 SLP250 P0000 60003 T02220211 50007 $ =
2018-07-22 21:53 METAR KMLT 230153Z AUTO 14005KT 9SM -RA OVC008 23/21 A3026 RMK AO2 CIG 006V010
                 SLP250 P0002 T02280211 =
2018-07-22 21:42 METAR KMLT 230142Z AUTO VRB04KT 8SM -RA OVC008 23/22 A3026 RMK AO2 CIG 006V012
                 P0002 T02280217 =
2018-07-22 20:53 METAR KMLT 230053Z AUTO 14003KT 8SM -RA BKN013 BKN018 23/22 A3025 RMK AO2 SLP247
                 P0001 T02280217 =
2018-07-22 20:46 METAR KMLT 230046Z AUTO 14003KT 9SM -RA BKN017 BKN110 23/22 A3025 RMK AO2 P0001
                 T02280217 =
2018-07-22 20:29 METAR KMLT 230029Z AUTO 12005KT 10SM -RA FEW015 SCT022 BKN120 23/22 A3024 RMK
                 AO2 P0000 T02330217 =
2018-07-22 19:53 METAR KMLT 222353Z AUTO 14003KT 8SM -RA SCT016 BKN021 OVC026 24/21 A3024 RMK AO2
                 SLP243 P0000 60000 T02390211 10272 20239 53004 =
2018-07-22 18:53 METAR KMLT 222253Z AUTO 15004KT 10SM -RA SCT022 BKN029 OVC047 25/21 A3022 RMK
                 AO2 RAB43 SLP238 P0000 T02500206 =
2018-07-22 18:17 METAR KMLT 222217Z AUTO VRB05KT 10SM BKN028 OVC034 26/19 A3022 RMK AO2 T02560194
                 =
2018-07-22 18:03 METAR KMLT 222203Z AUTO 15003KT 10SM BKN030 BKN036 OVC045 26/19 A3022 RMK AO2
                 T02560189 =
2018-07-22 17:53 METAR KMLT 222153Z AUTO 14003KT 10SM BKN028 BKN036 BKN045 26/19 A3022 RMK AO2
                 SLP238 T02560189 =
2018-07-22 17:19 METAR KMLT 222119Z AUTO 14003KT 10SM BKN029 OVC050 26/18 A3022 RMK AO2 T02560183
                 =
2018-07-22 16:53 METAR KMLT 222053Z AUTO 00000KT 10SM OVC031 26/18 A3023 RMK AO2 SLP240 60000
                 T02610183 55000 =
2018-07-22 15:53 METAR KMLT 221953Z AUTO 18003KT 10SM BKN038 BKN047 OVC060 26/17 A3023 RMK AO2
                 RAB05E14 SLP238 P0000 T02610167 =
2018-07-22 14:53 METAR KMLT 221853Z AUTO 00000KT 10SM FEW043 BKN055 OVC110 27/14 A3022 RMK AO2
                 SLP237 T02670139 =
2018-07-22 13:53 METAR KMLT 221753Z AUTO 19003KT 10SM BKN065 OVC095 26/13 A3023 RMK AO2 SLP239
                 T02610133 10272 20178 56005 =
2018-07-22 12:53 METAR KMLT 221653Z AUTO 15005KT 10SM CLR 27/12 A3023 RMK AO2 SLP240 T02670122 =
2018-07-22 11:53 METAR KMLT 221553Z AUTO VRB04KT 10SM CLR 26/12 A3024 RMK AO2 SLP242 T02560122 =

Support USWX by starting your Amazon purchase here.